Tamel Aike, Argentina
Current Conditions -  °F | °C
As of 4:00 AM on Saturday 29 Nov 2014 (Local Time) from SCBA Reporting Station
NA  
Wind Chill: 25°   Ceiling: NA
Heat Index: 34°   Visibility: 6mi
Dew Point: 28°   Wind: 12mph
Humidity: 81%   Direction: 340°NNW
Pressure: 29.88"   Gusts: NA
Location:  48.32°S, 70.94°W
Report Text: SCBA 290700Z AUTO 34010KT 320V020 9999 01/M02 Q1012
Loading
Personal Weather Stations






























Interactive Weather Map New forecast layout! Learn more

10-Day Weather Forecast

Advertisements
Track Severe Weather on mobile